sensor_id;sensor_type;location;lat;lon;timestamp;pressure;altitude;pressure_sealevel;temperature;humidity
55277;BME280;41136;51.478;-2.610;2023-07-30T00:00:01;100035.33;;;15.83;100.00
55277;BME280;41136;51.478;-2.610;2023-07-30T00:02:27;100042.03;;;16.29;100.00
55277;BME280;41136;51.478;-2.610;2023-07-30T00:04:52;100047.74;;;15.76;100.00
55277;BME280;41136;51.478;-2.610;2023-07-30T00:07:17;100047.73;;;15.47;100.00
55277;BME280;41136;51.478;-2.610;2023-07-30T00:09:42;100039.90;;;15.96;100.00
55277;BME280;41136;51.478;-2.610;2023-07-30T00:12:08;100048.02;;;16.29;100.00
55277;BME280;41136;51.478;-2.610;2023-07-30T00:14:33;100047.47;;;16.41;100.00
55277;BME280;41136;51.478;-2.610;2023-07-30T00:16:58;100047.07;;;16.68;100.00
55277;BME280;41136;51.478;-2.610;2023-07-30T00:19:23;100050.87;;;16.47;100.00
55277;BME280;41136;51.478;-2.610;2023-07-30T00:21:49;100043.33;;;17.03;100.00
55277;BME280;41136;51.478;-2.610;2023-07-30T00:24:14;100048.40;;;16.85;100.00
55277;BME280;41136;51.478;-2.610;2023-07-30T00:26:39;100049.58;;;16.99;100.00
55277;BME280;41136;51.478;-2.610;2023-07-30T00:29:04;100051.34;;;17.22;100.00
55277;BME280;41136;51.478;-2.610;2023-07-30T00:31:30;100052.65;;;16.00;100.00
55277;BME280;41136;51.478;-2.610;2023-07-30T00:33:55;100053.26;;;16.02;100.00
55277;BME280;41136;51.478;-2.610;2023-07-30T00:36:20;100057.61;;;16.18;100.00
55277;BME280;41136;51.478;-2.610;2023-07-30T00:38:45;100060.97;;;16.43;100.00
55277;BME280;41136;51.478;-2.610;2023-07-30T00:41:11;100056.85;;;16.73;100.00
55277;BME280;41136;51.478;-2.610;2023-07-30T00:43:36;100060.16;;;15.58;100.00
55277;BME280;41136;51.478;-2.610;2023-07-30T00:46:01;100058.07;;;16.27;100.00
55277;BME280;41136;51.478;-2.610;2023-07-30T00:48:27;100056.23;;;15.89;100.00
55277;BME280;41136;51.478;-2.610;2023-07-30T00:50:52;100050.94;;;15.44;100.00
55277;BME280;41136;51.478;-2.610;2023-07-30T00:53:18;100055.65;;;15.34;100.00
55277;BME280;41136;51.478;-2.610;2023-07-30T00:55:42;100061.60;;;15.75;100.00
55277;BME280;41136;51.478;-2.610;2023-07-30T00:58:08;100065.37;;;15.79;100.00
55277;BME280;41136;51.478;-2.610;2023-07-30T01:00:33;100054.13;;;15.79;100.00
55277;BME280;41136;51.478;-2.610;2023-07-30T01:02:59;100067.37;;;15.68;100.00
55277;BME280;41136;51.478;-2.610;2023-07-30T01:05:23;100060.04;;;15.45;100.00
55277;BME280;41136;51.478;-2.610;2023-07-30T01:07:49;100062.22;;;15.82;100.00
55277;BME280;41136;51.478;-2.610;2023-07-30T01:10:14;100057.17;;;15.91;100.00
55277;BME280;41136;51.478;-2.610;2023-07-30T01:12:40;100051.44;;;15.88;100.00
55277;BME280;41136;51.478;-2.610;2023-07-30T01:15:06;100059.69;;;15.86;100.00
55277;BME280;41136;51.478;-2.610;2023-07-30T01:17:30;100063.93;;;15.17;100.00
55277;BME280;41136;51.478;-2.610;2023-07-30T01:19:55;100065.96;;;15.51;100.00
55277;BME280;41136;51.478;-2.610;2023-07-30T01:22:21;100065.77;;;15.43;100.00
55277;BME280;41136;51.478;-2.610;2023-07-30T01:24:46;100064.63;;;15.56;100.00
55277;BME280;41136;51.478;-2.610;2023-07-30T01:27:16;100063.70;;;15.40;100.00
55277;BME280;41136;51.478;-2.610;2023-07-30T01:29:42;100069.58;;;15.07;100.00
55277;BME280;41136;51.478;-2.610;2023-07-30T01:32:05;100066.27;;;14.99;100.00
55277;BME280;41136;51.478;-2.610;2023-07-30T01:34:27;100063.08;;;15.42;100.00
55277;BME280;41136;51.478;-2.610;2023-07-30T01:39:48;100062.33;;;15.22;100.00
55277;BME280;41136;51.478;-2.610;2023-07-30T01:42:12;100068.45;;;15.35;100.00
55277;BME280;41136;51.478;-2.610;2023-07-30T01:47:15;100081.95;;;14.72;100.00
55277;BME280;41136;51.478;-2.610;2023-07-30T01:49:40;100073.90;;;15.51;100.00
55277;BME280;41136;51.478;-2.610;2023-07-30T01:52:06;100075.78;;;15.09;100.00
55277;BME280;41136;51.478;-2.610;2023-07-30T01:54:31;100077.03;;;15.06;100.00
55277;BME280;41136;51.478;-2.610;2023-07-30T01:56:56;100077.81;;;14.83;100.00
55277;BME280;41136;51.478;-2.610;2023-07-30T01:59:22;100073.70;;;15.26;100.00
55277;BME280;41136;51.478;-2.610;2023-07-30T02:01:47;100080.79;;;15.69;100.00
55277;BME280;41136;51.478;-2.610;2023-07-30T02:04:12;100077.78;;;15.05;100.00
55277;BME280;41136;51.478;-2.610;2023-07-30T02:06:37;100078.89;;;15.15;100.00
55277;BME280;41136;51.478;-2.610;2023-07-30T02:09:03;100078.08;;;14.82;100.00
55277;BME280;41136;51.478;-2.610;2023-07-30T02:11:28;100075.36;;;14.72;100.00
55277;BME280;41136;51.478;-2.610;2023-07-30T02:13:53;100077.07;;;14.59;100.00
55277;BME280;41136;51.478;-2.610;2023-07-30T02:16:18;100073.27;;;14.59;100.00
55277;BME280;41136;51.478;-2.610;2023-07-30T02:18:44;100077.79;;;14.41;100.00
55277;BME280;41136;51.478;-2.610;2023-07-30T02:21:09;100081.50;;;14.98;100.00
55277;BME280;41136;51.478;-2.610;2023-07-30T02:23:34;100078.84;;;15.47;100.00
55277;BME280;41136;51.478;-2.610;2023-07-30T02:26:00;100075.56;;;15.51;100.00
55277;BME280;41136;51.478;-2.610;2023-07-30T02:28:25;100078.98;;;15.06;100.00
55277;BME280;41136;51.478;-2.610;2023-07-30T02:30:51;100078.41;;;14.38;100.00
55277;BME280;41136;51.478;-2.610;2023-07-30T02:33:16;100078.43;;;15.50;100.00
55277;BME280;41136;51.478;-2.610;2023-07-30T02:35:43;100074.44;;;15.22;100.00
55277;BME280;41136;51.478;-2.610;2023-07-30T02:38:07;100074.72;;;15.00;100.00
55277;BME280;41136;51.478;-2.610;2023-07-30T02:40:32;100071.23;;;15.34;100.00
55277;BME280;41136;51.478;-2.610;2023-07-30T02:42:57;100075.64;;;14.55;100.00
55277;BME280;41136;51.478;-2.610;2023-07-30T02:45:23;100069.98;;;14.38;100.00
55277;BME280;41136;51.478;-2.610;2023-07-30T02:47:49;100068.28;;;15.33;100.00
55277;BME280;41136;51.478;-2.610;2023-07-30T02:50:14;100058.46;;;15.20;100.00
55277;BME280;41136;51.478;-2.610;2023-07-30T02:52:40;100068.98;;;15.29;100.00
55277;BME280;41136;51.478;-2.610;2023-07-30T02:55:05;100070.76;;;15.37;100.00
55277;BME280;41136;51.478;-2.610;2023-07-30T02:57:30;100063.01;;;14.49;100.00
55277;BME280;41136;51.478;-2.610;2023-07-30T02:59:55;100068.73;;;14.62;100.00
55277;BME280;41136;51.478;-2.610;2023-07-30T03:02:21;100073.81;;;15.25;100.00
55277;BME280;41136;51.478;-2.610;2023-07-30T03:04:46;100075.42;;;15.38;100.00
55277;BME280;41136;51.478;-2.610;2023-07-30T03:07:11;100069.98;;;15.03;100.00
55277;BME280;41136;51.478;-2.610;2023-07-30T03:09:36;100073.98;;;14.80;100.00
55277;BME280;41136;51.478;-2.610;2023-07-30T03:12:02;100073.05;;;15.27;100.00
55277;BME280;41136;51.478;-2.610;2023-07-30T03:14:27;100068.68;;;14.91;100.00
55277;BME280;41136;51.478;-2.610;2023-07-30T03:16:52;100075.54;;;15.27;100.00
55277;BME280;41136;51.478;-2.610;2023-07-30T03:19:18;100075.09;;;15.02;100.00
55277;BME280;41136;51.478;-2.610;2023-07-30T03:21:43;100078.03;;;15.24;100.00
55277;BME280;41136;51.478;-2.610;2023-07-30T03:24:08;100078.97;;;14.48;100.00
55277;BME280;41136;51.478;-2.610;2023-07-30T03:26:33;100079.51;;;15.30;100.00
55277;BME280;41136;51.478;-2.610;2023-07-30T03:28:59;100075.76;;;15.58;100.00
55277;BME280;41136;51.478;-2.610;2023-07-30T03:31:24;100082.08;;;15.50;100.00
55277;BME280;41136;51.478;-2.610;2023-07-30T03:33:49;100082.72;;;15.33;100.00
55277;BME280;41136;51.478;-2.610;2023-07-30T03:36:15;100085.61;;;15.26;100.00
55277;BME280;41136;51.478;-2.610;2023-07-30T03:38:40;100083.64;;;15.00;100.00
55277;BME280;41136;51.478;-2.610;2023-07-30T03:41:05;100090.28;;;15.14;100.00
55277;BME280;41136;51.478;-2.610;2023-07-30T03:43:30;100094.80;;;14.81;100.00
55277;BME280;41136;51.478;-2.610;2023-07-30T03:45:55;100105.95;;;15.32;100.00
55277;BME280;41136;51.478;-2.610;2023-07-30T03:48:21;100108.31;;;14.75;100.00
55277;BME280;41136;51.478;-2.610;2023-07-30T03:50:46;100109.70;;;15.13;100.00
55277;BME280;41136;51.478;-2.610;2023-07-30T03:53:11;100109.72;;;15.09;100.00
55277;BME280;41136;51.478;-2.610;2023-07-30T03:55:37;100113.55;;;15.07;100.00
55277;BME280;41136;51.478;-2.610;2023-07-30T03:58:02;100116.47;;;15.60;100.00
55277;BME280;41136;51.478;-2.610;2023-07-30T04:00:27;100121.80;;;15.00;100.00
55277;BME280;41136;51.478;-2.610;2023-07-30T04:02:52;100122.08;;;15.27;100.00
55277;BME280;41136;51.478;-2.610;2023-07-30T04:05:18;100122.19;;;14.69;100.00
55277;BME280;41136;51.478;-2.610;2023-07-30T04:07:43;100120.61;;;15.82;100.00
55277;BME280;41136;51.478;-2.610;2023-07-30T04:10:09;100125.96;;;15.41;100.00
55277;BME280;41136;51.478;-2.610;2023-07-30T04:12:33;100123.90;;;15.60;100.00
55277;BME280;41136;51.478;-2.610;2023-07-30T04:14:59;100115.34;;;15.08;100.00
55277;BME280;41136;51.478;-2.610;2023-07-30T04:17:25;100124.52;;;15.61;100.00
55277;BME280;41136;51.478;-2.610;2023-07-30T04:19:50;100123.87;;;15.89;100.00
55277;BME280;41136;51.478;-2.610;2023-07-30T04:22:15;100123.54;;;15.49;100.00
55277;BME280;41136;51.478;-2.610;2023-07-30T04:24:40;100125.63;;;15.92;100.00
55277;BME280;41136;51.478;-2.610;2023-07-30T04:27:06;100125.73;;;15.28;100.00
55277;BME280;41136;51.478;-2.610;2023-07-30T04:29:31;100125.05;;;16.02;100.00
55277;BME280;41136;51.478;-2.610;2023-07-30T04:31:56;100125.73;;;15.74;100.00
55277;BME280;41136;51.478;-2.610;2023-07-30T04:34:21;100128.15;;;15.32;100.00
55277;BME280;41136;51.478;-2.610;2023-07-30T04:36:46;100125.56;;;16.27;100.00
55277;BME280;41136;51.478;-2.610;2023-07-30T04:42:41;100125.96;;;15.61;100.00
55277;BME280;41136;51.478;-2.610;2023-07-30T04:45:07;100130.75;;;15.55;100.00
55277;BME280;41136;51.478;-2.610;2023-07-30T04:47:31;100135.56;;;16.46;100.00
55277;BME280;41136;51.478;-2.610;2023-07-30T04:49:56;100142.34;;;15.49;100.00
55277;BME280;41136;51.478;-2.610;2023-07-30T04:52:22;100149.43;;;16.02;100.00
55277;BME280;41136;51.478;-2.610;2023-07-30T04:54:47;100146.70;;;16.05;100.00
55277;BME280;41136;51.478;-2.610;2023-07-30T04:57:12;100149.69;;;15.53;100.00
55277;BME280;41136;51.478;-2.610;2023-07-30T04:59:38;100153.66;;;16.08;100.00
55277;BME280;41136;51.478;-2.610;2023-07-30T05:02:03;100144.76;;;16.14;100.00
55277;BME280;41136;51.478;-2.610;2023-07-30T05:04:28;100144.55;;;16.34;100.00
55277;BME280;41136;51.478;-2.610;2023-07-30T05:06:53;100151.59;;;16.63;100.00
55277;BME280;41136;51.478;-2.610;2023-07-30T05:09:19;100144.09;;;16.63;100.00
55277;BME280;41136;51.478;-2.610;2023-07-30T05:11:44;100149.70;;;16.00;100.00
55277;BME280;41136;51.478;-2.610;2023-07-30T05:14:09;100151.12;;;15.73;100.00
55277;BME280;41136;51.478;-2.610;2023-07-30T05:16:34;100154.89;;;15.81;100.00
55277;BME280;41136;51.478;-2.610;2023-07-30T05:19:00;100150.97;;;15.07;100.00
55277;BME280;41136;51.478;-2.610;2023-07-30T05:21:25;100151.23;;;15.37;100.00
55277;BME280;41136;51.478;-2.610;2023-07-30T05:23:50;100149.53;;;14.62;100.00
55277;BME280;41136;51.478;-2.610;2023-07-30T05:26:15;100154.73;;;14.94;100.00
55277;BME280;41136;51.478;-2.610;2023-07-30T05:28:41;100161.77;;;15.19;100.00
55277;BME280;41136;51.478;-2.610;2023-07-30T05:31:06;100161.15;;;14.95;100.00
55277;BME280;41136;51.478;-2.610;2023-07-30T05:33:31;100160.87;;;15.90;100.00
55277;BME280;41136;51.478;-2.610;2023-07-30T05:35:57;100171.83;;;15.54;100.00
55277;BME280;41136;51.478;-2.610;2023-07-30T05:38:22;100168.08;;;15.23;100.00
55277;BME280;41136;51.478;-2.610;2023-07-30T05:40:48;100173.00;;;15.11;100.00
55277;BME280;41136;51.478;-2.610;2023-07-30T05:43:13;100170.30;;;15.21;100.00
55277;BME280;41136;51.478;-2.610;2023-07-30T05:45:38;100167.10;;;15.46;100.00
55277;BME280;41136;51.478;-2.610;2023-07-30T05:48:04;100162.79;;;16.10;100.00
55277;BME280;41136;51.478;-2.610;2023-07-30T05:50:29;100164.87;;;15.87;100.00
55277;BME280;41136;51.478;-2.610;2023-07-30T05:52:54;100165.96;;;15.78;100.00
55277;BME280;41136;51.478;-2.610;2023-07-30T05:55:19;100169.77;;;15.69;100.00
55277;BME280;41136;51.478;-2.610;2023-07-30T05:57:45;100176.55;;;14.70;100.00
55277;BME280;41136;51.478;-2.610;2023-07-30T06:00:11;100174.83;;;14.95;100.00
55277;BME280;41136;51.478;-2.610;2023-07-30T06:02:35;100176.35;;;15.01;100.00
55277;BME280;41136;51.478;-2.610;2023-07-30T06:05:01;100180.77;;;15.03;100.00
55277;BME280;41136;51.478;-2.610;2023-07-30T06:07:26;100180.81;;;15.43;100.00
55277;BME280;41136;51.478;-2.610;2023-07-30T06:09:51;100186.12;;;15.04;100.00
55277;BME280;41136;51.478;-2.610;2023-07-30T06:12:16;100179.21;;;16.04;100.00
55277;BME280;41136;51.478;-2.610;2023-07-30T06:14:42;100175.42;;;15.82;100.00
55277;BME280;41136;51.478;-2.610;2023-07-30T06:17:07;100179.56;;;16.48;100.00
55277;BME280;41136;51.478;-2.610;2023-07-30T06:19:32;100183.82;;;16.66;100.00
55277;BME280;41136;51.478;-2.610;2023-07-30T06:21:58;100181.00;;;16.31;100.00
55277;BME280;41136;51.478;-2.610;2023-07-30T06:24:23;100181.38;;;16.44;100.00
55277;BME280;41136;51.478;-2.610;2023-07-30T06:26:49;100179.49;;;16.32;100.00
55277;BME280;41136;51.478;-2.610;2023-07-30T06:29:14;100174.60;;;17.13;100.00
55277;BME280;41136;51.478;-2.610;2023-07-30T06:31:40;100174.20;;;16.57;100.00
55277;BME280;41136;51.478;-2.610;2023-07-30T06:34:05;100174.99;;;16.23;100.00
55277;BME280;41136;51.478;-2.610;2023-07-30T06:36:30;100166.37;;;16.99;100.00
55277;BME280;41136;51.478;-2.610;2023-07-30T06:38:55;100174.63;;;17.21;100.00
55277;BME280;41136;51.478;-2.610;2023-07-30T06:41:21;100180.86;;;17.01;100.00
55277;BME280;41136;51.478;-2.610;2023-07-30T06:43:46;100177.57;;;18.09;100.00
55277;BME280;41136;51.478;-2.610;2023-07-30T06:46:11;100177.80;;;18.94;100.00
55277;BME280;41136;51.478;-2.610;2023-07-30T06:48:36;100176.43;;;19.16;100.00
55277;BME280;41136;51.478;-2.610;2023-07-30T06:51:06;100186.94;;;19.62;100.00
55277;BME280;41136;51.478;-2.610;2023-07-30T06:53:27;100191.39;;;18.69;100.00
55277;BME280;41136;51.478;-2.610;2023-07-30T06:55:52;100189.29;;;19.19;100.00
55277;BME280;41136;51.478;-2.610;2023-07-30T06:58:17;100189.39;;;18.55;100.00
55277;BME280;41136;51.478;-2.610;2023-07-30T07:00:43;100184.61;;;19.32;100.00
55277;BME280;41136;51.478;-2.610;2023-07-30T07:03:09;100192.85;;;19.26;100.00
55277;BME280;41136;51.478;-2.610;2023-07-30T07:05:34;100193.72;;;19.68;100.00
55277;BME280;41136;51.478;-2.610;2023-07-30T07:07:59;100198.39;;;19.22;100.00
55277;BME280;41136;51.478;-2.610;2023-07-30T07:10:24;100199.27;;;19.01;100.00
55277;BME280;41136;51.478;-2.610;2023-07-30T07:12:50;100200.39;;;18.90;100.00
55277;BME280;41136;51.478;-2.610;2023-07-30T07:15:15;100196.58;;;18.93;100.00
55277;BME280;41136;51.478;-2.610;2023-07-30T07:17:41;100196.31;;;18.96;100.00
55277;BME280;41136;51.478;-2.610;2023-07-30T07:20:07;100199.50;;;19.21;100.00
55277;BME280;41136;51.478;-2.610;2023-07-30T07:22:31;100203.74;;;18.97;100.00
55277;BME280;41136;51.478;-2.610;2023-07-30T07:24:56;100208.99;;;18.28;100.00
55277;BME280;41136;51.478;-2.610;2023-07-30T07:27:22;100208.86;;;18.78;100.00
55277;BME280;41136;51.478;-2.610;2023-07-30T07:29:47;100204.82;;;19.10;100.00
55277;BME280;41136;51.478;-2.610;2023-07-30T07:32:13;100203.48;;;19.92;99.34
55277;BME280;41136;51.478;-2.610;2023-07-30T07:34:38;100208.65;;;20.53;97.61
55277;BME280;41136;51.478;-2.610;2023-07-30T07:37:03;100209.82;;;19.95;96.74
55277;BME280;41136;51.478;-2.610;2023-07-30T07:39:28;100208.23;;;19.97;96.51
55277;BME280;41136;51.478;-2.610;2023-07-30T07:41:54;100208.00;;;20.11;97.64
55277;BME280;41136;51.478;-2.610;2023-07-30T07:44:19;100208.09;;;19.86;98.59
55277;BME280;41136;51.478;-2.610;2023-07-30T07:46:44;100213.34;;;20.27;97.20
55277;BME280;41136;51.478;-2.610;2023-07-30T07:49:09;100218.46;;;20.27;96.59
55277;BME280;41136;51.478;-2.610;2023-07-30T07:51:35;100218.18;;;19.35;96.33
55277;BME280;41136;51.478;-2.610;2023-07-30T07:54:00;100215.88;;;19.85;96.91
55277;BME280;41136;51.478;-2.610;2023-07-30T07:56:25;100225.46;;;19.99;96.41
55277;BME280;41136;51.478;-2.610;2023-07-30T07:58:50;100227.79;;;20.55;96.34
55277;BME280;41136;51.478;-2.610;2023-07-30T08:01:15;100225.08;;;20.01;96.42
55277;BME280;41136;51.478;-2.610;2023-07-30T08:03:41;100220.27;;;20.47;95.83
55277;BME280;41136;51.478;-2.610;2023-07-30T08:06:07;100222.38;;;19.39;97.72
55277;BME280;41136;51.478;-2.610;2023-07-30T08:08:32;100226.41;;;20.20;96.61
55277;BME280;41136;51.478;-2.610;2023-07-30T08:10:57;100230.13;;;20.01;97.72
55277;BME280;41136;51.478;-2.610;2023-07-30T08:13:23;100231.12;;;20.17;98.90
55277;BME280;41136;51.478;-2.610;2023-07-30T08:15:48;100237.09;;;20.17;99.71
55277;BME280;41136;51.478;-2.610;2023-07-30T08:18:13;100242.51;;;20.55;99.89
55277;BME280;41136;51.478;-2.610;2023-07-30T08:20:38;100235.31;;;20.75;99.98
55277;BME280;41136;51.478;-2.610;2023-07-30T08:23:03;100227.90;;;20.82;99.10
55277;BME280;41136;51.478;-2.610;2023-07-30T08:25:28;100230.97;;;21.09;97.65
55277;BME280;41136;51.478;-2.610;2023-07-30T08:27:54;100231.37;;;20.61;99.98
55277;BME280;41136;51.478;-2.610;2023-07-30T08:30:19;100235.38;;;20.60;100.00
55277;BME280;41136;51.478;-2.610;2023-07-30T08:32:44;100231.15;;;20.56;100.00
55277;BME280;41136;51.478;-2.610;2023-07-30T08:35:10;100227.59;;;19.24;100.00
55277;BME280;41136;51.478;-2.610;2023-07-30T08:37:35;100233.58;;;20.12;100.00
55277;BME280;41136;51.478;-2.610;2023-07-30T08:40:00;100230.72;;;20.05;100.00
55277;BME280;41136;51.478;-2.610;2023-07-30T08:42:26;100225.16;;;20.00;100.00
55277;BME280;41136;51.478;-2.610;2023-07-30T08:44:51;100224.25;;;19.00;100.00
55277;BME280;41136;51.478;-2.610;2023-07-30T08:47:17;100219.10;;;20.03;100.00
55277;BME280;41136;51.478;-2.610;2023-07-30T08:49:41;100216.74;;;19.23;100.00
55277;BME280;41136;51.478;-2.610;2023-07-30T08:52:09;100214.55;;;19.95;100.00
55277;BME280;41136;51.478;-2.610;2023-07-30T08:54:32;100209.17;;;19.85;100.00
55277;BME280;41136;51.478;-2.610;2023-07-30T08:56:58;100208.90;;;19.87;100.00
55277;BME280;41136;51.478;-2.610;2023-07-30T08:59:24;100211.58;;;19.15;100.00
55277;BME280;41136;51.478;-2.610;2023-07-30T09:01:51;100218.96;;;19.32;100.00
55277;BME280;41136;51.478;-2.610;2023-07-30T09:04:15;100216.49;;;18.74;100.00
55277;BME280;41136;51.478;-2.610;2023-07-30T09:06:38;100218.89;;;18.68;100.00
55277;BME280;41136;51.478;-2.610;2023-07-30T09:09:03;100216.47;;;18.41;100.00
55277;BME280;41136;51.478;-2.610;2023-07-30T09:11:29;100215.76;;;19.43;100.00
55277;BME280;41136;51.478;-2.610;2023-07-30T09:13:55;100215.39;;;19.14;100.00
55277;BME280;41136;51.478;-2.610;2023-07-30T09:16:19;100220.06;;;19.60;100.00
55277;BME280;41136;51.478;-2.610;2023-07-30T09:18:45;100213.39;;;19.90;100.00
55277;BME280;41136;51.478;-2.610;2023-07-30T09:21:10;100211.60;;;19.52;100.00
55277;BME280;41136;51.478;-2.610;2023-07-30T09:23:39;100210.29;;;18.99;100.00
55277;BME280;41136;51.478;-2.610;2023-07-30T09:26:00;100217.90;;;19.45;100.00
55277;BME280;41136;51.478;-2.610;2023-07-30T09:28:30;100221.34;;;18.65;100.00
55277;BME280;41136;51.478;-2.610;2023-07-30T09:30:52;100214.81;;;19.05;100.00
55277;BME280;41136;51.478;-2.610;2023-07-30T09:33:18;100215.12;;;19.60;100.00
55277;BME280;41136;51.478;-2.610;2023-07-30T09:35:43;100209.46;;;20.06;100.00
55277;BME280;41136;51.478;-2.610;2023-07-30T09:38:06;100209.85;;;20.41;100.00
55277;BME280;41136;51.478;-2.610;2023-07-30T09:40:32;100211.34;;;19.38;100.00
55277;BME280;41136;51.478;-2.610;2023-07-30T09:42:57;100212.01;;;20.40;100.00
55277;BME280;41136;51.478;-2.610;2023-07-30T09:45:24;100210.47;;;19.92;100.00
55277;BME280;41136;51.478;-2.610;2023-07-30T09:47:48;100210.20;;;20.50;100.00
55277;BME280;41136;51.478;-2.610;2023-07-30T09:50:14;100209.09;;;20.09;100.00
55277;BME280;41136;51.478;-2.610;2023-07-30T09:52:38;100209.75;;;19.57;100.00
55277;BME280;41136;51.478;-2.610;2023-07-30T09:55:07;100212.80;;;20.30;100.00
55277;BME280;41136;51.478;-2.610;2023-07-30T09:57:28;100211.26;;;20.03;100.00
55277;BME280;41136;51.478;-2.610;2023-07-30T09:59:53;100214.84;;;20.11;100.00
55277;BME280;41136;51.478;-2.610;2023-07-30T10:02:19;100216.81;;;20.06;100.00
55277;BME280;41136;51.478;-2.610;2023-07-30T10:04:47;100218.92;;;20.69;100.00
55277;BME280;41136;51.478;-2.610;2023-07-30T10:07:14;100214.95;;;20.65;100.00
55277;BME280;41136;51.478;-2.610;2023-07-30T10:09:38;100208.08;;;21.01;100.00
55277;BME280;41136;51.478;-2.610;2023-07-30T10:12:00;100206.85;;;21.25;100.00
55277;BME280;41136;51.478;-2.610;2023-07-30T10:14:25;100209.54;;;21.23;100.00
55277;BME280;41136;51.478;-2.610;2023-07-30T10:16:52;100212.40;;;20.55;100.00
55277;BME280;41136;51.478;-2.610;2023-07-30T10:19:15;100211.79;;;20.44;100.00
55277;BME280;41136;51.478;-2.610;2023-07-30T10:21:42;100209.90;;;20.82;100.00
55277;BME280;41136;51.478;-2.610;2023-07-30T10:24:06;100213.58;;;19.97;100.00
55277;BME280;41136;51.478;-2.610;2023-07-30T10:26:32;100214.71;;;19.80;100.00
55277;BME280;41136;51.478;-2.610;2023-07-30T10:31:29;100220.14;;;20.33;100.00
55277;BME280;41136;51.478;-2.610;2023-07-30T10:33:50;100219.58;;;20.71;100.00
55277;BME280;41136;51.478;-2.610;2023-07-30T10:36:12;100223.01;;;20.18;100.00
55277;BME280;41136;51.478;-2.610;2023-07-30T10:38:38;100222.00;;;19.69;100.00
55277;BME280;41136;51.478;-2.610;2023-07-30T10:41:05;100222.60;;;19.11;100.00
55277;BME280;41136;51.478;-2.610;2023-07-30T10:43:29;100220.05;;;19.13;100.00
55277;BME280;41136;51.478;-2.610;2023-07-30T10:45:53;100220.86;;;18.71;100.00
55277;BME280;41136;51.478;-2.610;2023-07-30T10:48:18;100212.90;;;19.37;100.00
55277;BME280;41136;51.478;-2.610;2023-07-30T10:50:44;100216.31;;;20.28;100.00
55277;BME280;41136;51.478;-2.610;2023-07-30T10:53:09;100215.93;;;19.08;100.00
55277;BME280;41136;51.478;-2.610;2023-07-30T10:55:34;100218.33;;;20.33;100.00
55277;BME280;41136;51.478;-2.610;2023-07-30T10:57:59;100216.96;;;19.88;100.00
55277;BME280;41136;51.478;-2.610;2023-07-30T11:00:24;100212.90;;;18.86;100.00
55277;BME280;41136;51.478;-2.610;2023-07-30T11:02:53;100215.76;;;18.98;100.00
55277;BME280;41136;51.478;-2.610;2023-07-30T11:05:15;100215.86;;;19.90;100.00
55277;BME280;41136;51.478;-2.610;2023-07-30T11:07:49;100216.47;;;19.27;100.00
55277;BME280;41136;51.478;-2.610;2023-07-30T11:10:06;100216.10;;;19.86;100.00
55277;BME280;41136;51.478;-2.610;2023-07-30T11:12:30;100217.49;;;20.28;100.00
55277;BME280;41136;51.478;-2.610;2023-07-30T11:15:02;100217.30;;;19.81;100.00
55277;BME280;41136;51.478;-2.610;2023-07-30T11:17:21;100212.01;;;19.65;100.00
55277;BME280;41136;51.478;-2.610;2023-07-30T11:19:46;100210.99;;;19.68;100.00
55277;BME280;41136;51.478;-2.610;2023-07-30T11:22:11;100212.52;;;19.78;100.00
55277;BME280;41136;51.478;-2.610;2023-07-30T11:24:37;100211.94;;;19.32;100.00
55277;BME280;41136;51.478;-2.610;2023-07-30T11:27:02;100209.17;;;20.01;100.00
55277;BME280;41136;51.478;-2.610;2023-07-30T11:29:27;100203.30;;;19.27;100.00
55277;BME280;41136;51.478;-2.610;2023-07-30T11:31:56;100203.84;;;19.32;100.00
55277;BME280;41136;51.478;-2.610;2023-07-30T11:34:18;100206.13;;;18.68;100.00
55277;BME280;41136;51.478;-2.610;2023-07-30T11:36:43;100198.09;;;19.54;100.00
55277;BME280;41136;51.478;-2.610;2023-07-30T11:39:08;100205.17;;;19.16;100.00
55277;BME280;41136;51.478;-2.610;2023-07-30T11:41:33;100206.35;;;18.92;100.00
55277;BME280;41136;51.478;-2.610;2023-07-30T11:43:58;100203.38;;;19.27;100.00
55277;BME280;41136;51.478;-2.610;2023-07-30T11:46:23;100203.38;;;20.33;100.00
55277;BME280;41136;51.478;-2.610;2023-07-30T11:48:50;100206.72;;;19.04;100.00
55277;BME280;41136;51.478;-2.610;2023-07-30T11:51:19;100205.09;;;19.31;100.00
55277;BME280;41136;51.478;-2.610;2023-07-30T11:53:44;100207.15;;;19.99;100.00
55277;BME280;41136;51.478;-2.610;2023-07-30T11:56:04;100202.93;;;19.87;100.00
55277;BME280;41136;51.478;-2.610;2023-07-30T11:58:30;100201.45;;;19.41;100.00
55277;BME280;41136;51.478;-2.610;2023-07-30T12:00:55;100212.51;;;19.20;100.00
55277;BME280;41136;51.478;-2.610;2023-07-30T12:03:20;100219.62;;;19.22;100.00
55277;BME280;41136;51.478;-2.610;2023-07-30T12:05:49;100212.19;;;18.68;100.00
55277;BME280;41136;51.478;-2.610;2023-07-30T12:08:16;100218.35;;;18.80;100.00
55277;BME280;41136;51.478;-2.610;2023-07-30T12:10:41;100223.59;;;18.58;100.00
55277;BME280;41136;51.478;-2.610;2023-07-30T12:13:02;100219.25;;;18.00;100.00
55277;BME280;41136;51.478;-2.610;2023-07-30T12:15:29;100216.57;;;17.93;100.00
55277;BME280;41136;51.478;-2.610;2023-07-30T12:17:51;100213.96;;;18.20;100.00
55277;BME280;41136;51.478;-2.610;2023-07-30T12:20:17;100213.21;;;17.89;100.00
55277;BME280;41136;51.478;-2.610;2023-07-30T12:22:42;100210.74;;;18.84;100.00
55277;BME280;41136;51.478;-2.610;2023-07-30T12:25:08;100209.67;;;17.73;100.00
55277;BME280;41136;51.478;-2.610;2023-07-30T12:27:32;100212.20;;;17.97;100.00
55277;BME280;41136;51.478;-2.610;2023-07-30T12:29:58;100213.49;;;17.78;100.00